createdAt,value
2022-09-20T00:01:07.917Z,67.42
2022-09-20T00:03:43.183Z,68.00
2022-09-20T00:06:19.577Z,68.35
2022-09-20T00:08:53.045Z,68.07
2022-09-20T00:11:28.587Z,68.94
2022-09-20T00:14:03.062Z,69.09
2022-09-20T00:16:39.033Z,68.22
2022-09-20T00:19:23.425Z,68.40
2022-09-20T00:21:57.668Z,68.71
2022-09-20T00:24:30.613Z,68.33
2022-09-20T00:27:03.844Z,68.06
2022-09-20T00:29:36.673Z,68.22
2022-09-20T00:32:10.511Z,69.07
2022-09-20T00:35:00.616Z,69.16
2022-09-20T00:37:35.202Z,68.90
2022-09-20T00:40:11.484Z,69.36
2022-09-20T00:42:44.711Z,68.99
2022-09-20T00:45:23.567Z,69.88
2022-09-20T00:48:00.528Z,69.60
2022-09-20T00:50:38.084Z,69.71
2022-09-20T00:53:16.463Z,69.77
2022-09-20T00:55:53.061Z,69.63
2022-09-20T00:58:27.823Z,70.03
2022-09-20T01:01:01.442Z,70.02
2022-09-20T01:03:37.828Z,70.19
2022-09-20T01:06:14.905Z,70.21
2022-09-20T01:08:52.607Z,70.50
2022-09-20T01:11:28.143Z,70.05
2022-09-20T01:14:01.121Z,70.30
2022-09-20T01:16:34.980Z,69.95
2022-09-20T01:19:17.612Z,69.82
2022-09-20T01:21:50.726Z,69.69
2022-09-20T01:24:31.703Z,70.34
2022-09-20T01:27:21.719Z,69.89
2022-09-20T01:30:06.372Z,69.84
2022-09-20T01:32:53.403Z,69.63
2022-09-20T01:35:29.988Z,69.81
2022-09-20T01:38:20.261Z,69.94
2022-09-20T01:41:04.125Z,70.24
2022-09-20T01:43:42.187Z,69.84
2022-09-20T01:46:30.036Z,70.24
2022-09-20T01:49:17.396Z,70.27
2022-09-20T01:52:22.706Z,70.86
2022-09-20T01:55:35.031Z,71.12
2022-09-20T01:58:11.627Z,70.78
2022-09-20T02:00:59.589Z,70.95
2022-09-20T02:04:02.101Z,71.13
2022-09-20T02:07:07.941Z,70.85
2022-09-20T02:10:02.393Z,70.99
2022-09-20T02:12:55.314Z,70.86
2022-09-20T02:16:06.027Z,70.31
2022-09-20T02:18:56.930Z,70.17
2022-09-20T02:21:39.524Z,70.12
2022-09-20T02:24:24.403Z,69.98
2022-09-20T02:27:10.285Z,70.17
2022-09-20T02:29:49.535Z,70.41
2022-09-20T02:32:37.733Z,71.17
2022-09-20T02:35:21.035Z,71.40
2022-09-20T02:38:05.398Z,71.23
2022-09-20T02:41:01.874Z,70.99
2022-09-20T02:43:45.740Z,70.93
2022-09-20T02:46:25.382Z,70.89
2022-09-20T02:49:13.407Z,71.06
2022-09-20T02:51:53.046Z,71.12
2022-09-20T02:54:35.194Z,70.84
2022-09-20T02:57:19.115Z,70.55
2022-09-20T02:59:58.611Z,71.03
2022-09-20T03:02:44.239Z,70.36
2022-09-20T03:05:23.303Z,70.41
2022-09-20T03:08:10.518Z,70.71
2022-09-20T03:10:51.939Z,70.68
2022-09-20T03:13:44.437Z,71.40
2022-09-20T03:16:32.307Z,71.67
2022-09-20T03:19:18.377Z,71.78
2022-09-20T03:22:03.954Z,71.87
2022-09-20T03:24:52.831Z,72.14
2022-09-20T03:27:32.962Z,71.95
2022-09-20T03:30:33.541Z,71.59
2022-09-20T03:33:16.670Z,71.41
2022-09-20T03:36:06.539Z,71.46
2022-09-20T03:38:54.334Z,71.58
2022-09-20T03:41:40.515Z,71.32
2022-09-20T03:44:35.536Z,70.75
2022-09-20T03:47:27.195Z,70.92
2022-09-20T03:50:24.505Z,71.03
2022-09-20T03:53:21.250Z,70.74
2022-09-20T03:56:38.660Z,71.00
2022-09-20T03:59:23.551Z,71.04
2022-09-20T04:02:17.799Z,71.28
2022-09-20T04:04:55.816Z,71.70
2022-09-20T04:07:43.453Z,71.55
2022-09-20T04:10:30.917Z,71.27
2022-09-20T04:13:31.992Z,71.60
2022-09-20T04:16:27.056Z,71.46
2022-09-20T04:19:07.333Z,71.40
2022-09-20T04:21:47.250Z,71.95
2022-09-20T04:24:26.722Z,71.72
2022-09-20T04:27:04.872Z,71.60
2022-09-20T04:29:43.108Z,71.51
2022-09-20T04:32:23.042Z,71.66
2022-09-20T04:35:21.690Z,71.23
2022-09-20T04:37:56.170Z,71.62
2022-09-20T04:40:44.582Z,71.53
2022-09-20T04:43:53.787Z,72.16
2022-09-20T04:46:58.551Z,71.81
2022-09-20T04:50:00.444Z,71.95
2022-09-20T04:53:07.387Z,71.37
2022-09-20T04:55:57.019Z,72.15
2022-09-20T04:58:57.862Z,71.71
2022-09-20T05:02:13.802Z,71.41
2022-09-20T05:05:41.284Z,71.23
2022-09-20T05:08:48.201Z,71.23
2022-09-20T05:11:55.236Z,71.62
2022-09-20T05:14:43.202Z,72.06
2022-09-20T05:17:27.296Z,71.84
2022-09-20T05:20:37.151Z,71.91
2022-09-20T05:23:36.651Z,72.03
2022-09-20T05:26:18.371Z,71.87
2022-09-20T05:29:01.824Z,71.89
2022-09-20T05:31:41.274Z,72.56
2022-09-20T05:34:21.818Z,72.40
2022-09-20T05:37:03.327Z,72.32
2022-09-20T05:39:43.189Z,72.52
2022-09-20T05:42:22.500Z,72.85
2022-09-20T05:45:18.190Z,73.00
2022-09-20T05:47:58.138Z,73.21
2022-09-20T05:50:55.730Z,72.72
2022-09-20T05:53:57.299Z,72.92
2022-09-20T05:56:40.310Z,72.39
2022-09-20T05:59:36.409Z,72.46
2022-09-20T06:02:25.983Z,72.49
2022-09-20T06:05:04.711Z,73.08
2022-09-20T06:07:56.609Z,72.95
2022-09-20T06:10:47.275Z,73.06
2022-09-20T06:13:42.609Z,73.38
2022-09-20T06:16:23.045Z,73.40
2022-09-20T06:19:06.505Z,73.10
2022-09-20T06:21:52.966Z,73.59
2022-09-20T06:24:38.090Z,73.07
2022-09-20T06:27:15.154Z,73.45
2022-09-20T06:29:54.266Z,73.43
2022-09-20T06:32:28.605Z,73.65
2022-09-20T06:35:08.300Z,73.56
2022-09-20T06:38:08.608Z,73.39
2022-09-20T06:41:07.402Z,73.17
2022-09-20T06:43:42.091Z,72.95
2022-09-20T06:46:15.777Z,72.96
2022-09-20T06:48:51.249Z,72.70
2022-09-20T06:51:27.288Z,72.83
2022-09-20T06:54:00.317Z,72.52
2022-09-20T06:56:37.249Z,72.87
2022-09-20T06:59:10.482Z,72.65
2022-09-20T07:01:44.343Z,72.71
2022-09-20T07:04:17.392Z,72.35
2022-09-20T07:06:52.243Z,71.93
2022-09-20T07:09:25.377Z,72.38
2022-09-20T07:11:59.119Z,72.45
2022-09-20T07:14:32.135Z,72.03
2022-09-20T07:17:06.279Z,71.28
2022-09-20T07:19:39.372Z,72.45
2022-09-20T07:22:14.627Z,72.00
2022-09-20T07:24:48.360Z,71.35
2022-09-20T07:27:21.592Z,71.50
2022-09-20T07:29:55.033Z,71.58
2022-09-20T07:32:28.026Z,71.38
2022-09-20T07:35:02.014Z,71.41
2022-09-20T07:37:37.330Z,71.00
2022-09-20T07:40:12.436Z,70.30
2022-09-20T07:42:46.539Z,69.76
2022-09-20T07:45:19.356Z,70.09
2022-09-20T07:47:54.703Z,69.71
2022-09-20T07:50:28.014Z,69.62
2022-09-20T07:53:05.021Z,68.89
2022-09-20T07:55:39.599Z,68.95
2022-09-20T07:58:18.133Z,68.76
2022-09-20T08:00:53.559Z,68.17
2022-09-20T08:03:27.290Z,68.32
2022-09-20T08:06:01.246Z,67.55
2022-09-20T08:08:37.184Z,67.22
2022-09-20T08:11:14.426Z,67.23
2022-09-20T08:14:06.894Z,66.85
2022-09-20T08:16:43.909Z,66.80
2022-09-20T08:19:20.663Z,66.51
2022-09-20T08:21:54.472Z,66.56
2022-09-20T08:24:28.959Z,67.20
2022-09-20T08:27:04.164Z,66.68
2022-09-20T08:29:36.997Z,66.14
2022-09-20T08:32:10.382Z,65.59
2022-09-20T08:34:43.312Z,65.13
2022-09-20T08:37:16.496Z,65.08
2022-09-20T08:39:57.754Z,64.55
2022-09-20T08:42:37.850Z,63.81
2022-09-20T08:45:34.480Z,64.22
2022-09-20T08:48:15.899Z,63.50
2022-09-20T08:50:49.408Z,63.30
2022-09-20T08:53:22.353Z,63.87
2022-09-20T08:55:59.716Z,62.88
2022-09-20T08:58:34.224Z,63.36
2022-09-20T09:01:07.765Z,62.35
2022-09-20T09:03:40.711Z,62.03
2022-09-20T09:06:18.578Z,61.47
2022-09-20T09:08:54.036Z,60.50
2022-09-20T09:11:33.723Z,60.39
2022-09-20T09:14:26.902Z,60.24
2022-09-20T09:17:00.820Z,59.94
2022-09-20T09:19:44.565Z,60.46
2022-09-20T09:22:23.314Z,60.27
2022-09-20T09:25:11.956Z,59.97
2022-09-20T09:27:53.959Z,60.65
2022-09-20T09:30:30.214Z,60.57
2022-09-20T09:33:26.556Z,60.63
2022-09-20T09:36:05.820Z,61.30
2022-09-20T09:38:41.493Z,61.40
2022-09-20T09:41:26.621Z,60.37
2022-09-20T09:44:05.024Z,60.64
2022-09-20T09:46:40.046Z,60.75
2022-09-20T09:49:16.825Z,59.47
2022-09-20T09:52:13.464Z,58.41
2022-09-20T09:54:49.196Z,58.87
2022-09-20T09:57:53.900Z,58.74
2022-09-20T10:00:28.353Z,58.53
2022-09-20T10:03:15.265Z,58.00
2022-09-20T10:06:02.710Z,57.74
2022-09-20T10:08:44.856Z,58.13
2022-09-20T10:11:30.259Z,58.41
2022-09-20T10:14:16.711Z,59.31
2022-09-20T10:17:07.965Z,58.82
2022-09-20T10:20:00.015Z,59.14
2022-09-20T10:22:41.779Z,58.90
2022-09-20T10:25:23.931Z,57.71
2022-09-20T10:28:24.839Z,56.86
2022-09-20T10:31:15.258Z,59.12
2022-09-20T10:34:01.465Z,57.77
2022-09-20T10:36:50.018Z,57.44
2022-09-20T10:39:30.251Z,56.25
2022-09-20T10:42:36.100Z,55.68
2022-09-20T10:45:44.320Z,56.01
2022-09-20T10:48:25.880Z,55.44
2022-09-20T10:51:05.291Z,55.18
2022-09-20T10:53:48.484Z,56.13
2022-09-20T10:56:29.743Z,55.16
2022-09-20T10:59:32.534Z,54.03
2022-09-20T11:02:22.888Z,55.99
2022-09-20T11:05:18.095Z,56.85
2022-09-20T11:08:00.743Z,56.64
2022-09-20T11:10:39.205Z,56.72
2022-09-20T11:13:21.275Z,56.44
2022-09-20T11:16:01.769Z,56.57
2022-09-20T11:18:40.516Z,56.24
2022-09-20T11:21:20.645Z,55.92
2022-09-20T11:24:01.359Z,55.10
2022-09-20T11:26:39.785Z,56.47
2022-09-20T11:29:21.893Z,57.71
2022-09-20T11:31:59.269Z,57.81
2022-09-20T11:34:37.635Z,56.42
2022-09-20T11:37:10.762Z,56.77
2022-09-20T11:39:50.155Z,55.60
2022-09-20T11:42:27.293Z,56.47
2022-09-20T11:45:00.164Z,56.59
2022-09-20T11:47:53.838Z,55.73
2022-09-20T11:51:12.614Z,55.45
2022-09-20T11:54:01.725Z,51.82
2022-09-20T11:56:35.900Z,54.84
2022-09-20T11:59:28.264Z,54.48
2022-09-20T12:02:02.868Z,54.28
2022-09-20T12:04:38.191Z,53.60
2022-09-20T12:07:18.973Z,54.17
2022-09-20T12:09:59.093Z,52.99
2022-09-20T12:12:41.559Z,53.96
2022-09-20T12:15:26.228Z,52.55
2022-09-20T12:18:33.010Z,54.09
2022-09-20T12:21:16.182Z,54.01
2022-09-20T12:24:20.355Z,52.21
2022-09-20T12:26:57.404Z,54.79
2022-09-20T12:30:08.633Z,55.40
2022-09-20T12:32:48.776Z,53.44
2022-09-20T12:35:59.313Z,53.73
2022-09-20T12:38:49.689Z,54.36
2022-09-20T12:41:28.733Z,53.63
2022-09-20T12:44:07.872Z,53.28
2022-09-20T12:46:50.820Z,51.36
2022-09-20T12:50:01.208Z,48.90
2022-09-20T12:52:56.251Z,51.18
2022-09-20T12:55:38.470Z,51.34
2022-09-20T12:58:25.453Z,51.66
2022-09-20T13:01:31.074Z,51.74
2022-09-20T13:04:56.274Z,52.43
2022-09-20T13:07:58.083Z,53.92
2022-09-20T13:10:39.237Z,51.32
2022-09-20T13:13:27.611Z,51.78
2022-09-20T13:16:05.775Z,50.73
2022-09-20T13:18:40.447Z,50.51
2022-09-20T13:21:13.405Z,50.14
2022-09-20T13:23:53.024Z,49.48
2022-09-20T13:26:31.098Z,49.95
2022-09-20T13:29:08.414Z,50.36
2022-09-20T13:31:41.243Z,49.54
2022-09-20T13:34:16.071Z,49.76
2022-09-20T13:36:56.016Z,49.14
2022-09-20T13:39:37.756Z,47.42
2022-09-20T13:42:19.301Z,47.57
2022-09-20T13:44:52.441Z,48.78
2022-09-20T13:47:28.498Z,48.17
2022-09-20T13:50:02.951Z,48.24
2022-09-20T13:52:45.371Z,48.31
2022-09-20T13:55:29.078Z,47.95
2022-09-20T13:58:05.456Z,49.14
2022-09-20T14:00:46.047Z,49.99
2022-09-20T14:03:20.811Z,49.94
2022-09-20T14:05:57.223Z,49.77
2022-09-20T14:08:37.087Z,49.24
2022-09-20T14:11:17.568Z,50.61
2022-09-20T14:13:54.152Z,49.62
2022-09-20T14:16:31.115Z,49.79
2022-09-20T14:19:07.875Z,50.39
2022-09-20T14:21:41.048Z,50.60
2022-09-20T14:24:28.724Z,48.80
2022-09-20T14:27:16.011Z,50.04
2022-09-20T14:29:51.573Z,50.45
2022-09-20T14:32:38.819Z,49.12
2022-09-20T14:35:18.551Z,50.87
2022-09-20T14:37:53.221Z,50.26
2022-09-20T14:40:28.460Z,49.29
2022-09-20T14:43:04.852Z,48.91
2022-09-20T14:45:41.220Z,49.72
2022-09-20T14:48:33.480Z,50.13
2022-09-20T14:51:23.153Z,49.44
2022-09-20T14:54:24.530Z,51.50
2022-09-20T14:56:59.459Z,49.99
2022-09-20T14:59:42.794Z,49.89
2022-09-20T15:02:16.938Z,50.01
2022-09-20T15:04:54.824Z,50.17
2022-09-20T15:07:27.877Z,50.82
2022-09-20T15:10:01.011Z,50.89
2022-09-20T15:12:33.783Z,51.03
2022-09-20T15:15:14.969Z,50.04
2022-09-20T15:17:48.829Z,50.58
2022-09-20T15:20:24.566Z,50.41
2022-09-20T15:22:58.018Z,50.06
2022-09-20T15:25:30.819Z,49.97
2022-09-20T15:28:04.061Z,50.29
2022-09-20T15:30:38.387Z,50.41
2022-09-20T15:33:11.979Z,50.92
2022-09-20T15:35:47.758Z,50.86
2022-09-20T15:38:22.649Z,50.65
2022-09-20T15:40:55.646Z,50.58
2022-09-20T15:43:30.336Z,49.97
2022-09-20T15:46:19.078Z,50.32
2022-09-20T15:48:53.115Z,50.37
2022-09-20T15:51:26.456Z,50.68
2022-09-20T15:54:00.873Z,50.40
2022-09-20T15:56:35.538Z,50.85
2022-09-20T15:59:09.729Z,51.04
2022-09-20T16:01:48.260Z,50.73
2022-09-20T16:04:24.056Z,51.08
2022-09-20T16:06:57.104Z,51.29
2022-09-20T16:09:29.844Z,51.87
2022-09-20T16:12:04.588Z,51.64
2022-09-20T16:14:37.320Z,51.69
2022-09-20T16:17:11.527Z,51.48
2022-09-20T16:19:44.818Z,51.66
2022-09-20T16:22:19.361Z,51.91
2022-09-20T16:24:52.133Z,51.90
2022-09-20T16:27:24.900Z,51.97
2022-09-20T16:29:57.725Z,52.01
2022-09-20T16:32:31.987Z,51.92
2022-09-20T16:35:07.890Z,52.47
2022-09-20T16:37:40.687Z,52.34
2022-09-20T16:40:15.143Z,52.54
2022-09-20T16:42:52.254Z,52.83
2022-09-20T16:45:27.720Z,52.99
2022-09-20T16:48:08.441Z,52.15
2022-09-20T16:50:41.647Z,52.61
2022-09-20T16:53:14.759Z,52.55
2022-09-20T16:55:48.951Z,52.61
2022-09-20T16:58:22.627Z,52.74
2022-09-20T17:00:55.866Z,52.70
2022-09-20T17:03:30.366Z,52.64
2022-09-20T17:06:03.354Z,52.47
2022-09-20T17:08:38.806Z,52.65
2022-09-20T17:11:14.991Z,52.60
2022-09-20T17:13:51.375Z,53.25
2022-09-20T17:16:26.121Z,53.14
2022-09-20T17:19:01.817Z,53.09
2022-09-20T17:21:36.544Z,53.65
2022-09-20T17:24:09.484Z,53.92
2022-09-20T17:26:45.053Z,53.89
2022-09-20T17:29:21.417Z,53.94
2022-09-20T17:32:02.146Z,54.29
2022-09-20T17:34:36.698Z,54.32
2022-09-20T17:37:09.716Z,54.69
2022-09-20T17:39:43.150Z,54.28
2022-09-20T17:42:15.990Z,54.96
2022-09-20T17:44:48.775Z,54.62
2022-09-20T17:47:22.364Z,54.62
2022-09-20T17:49:57.825Z,54.76
2022-09-20T17:52:30.701Z,55.00
2022-09-20T17:55:03.786Z,55.41
2022-09-20T17:57:37.583Z,55.46
2022-09-20T18:00:11.542Z,55.85
2022-09-20T18:02:44.376Z,55.74
2022-09-20T18:05:18.919Z,55.70
2022-09-20T18:07:53.082Z,56.03
2022-09-20T18:10:29.167Z,55.58
2022-09-20T18:13:02.309Z,56.11
2022-09-20T18:15:35.375Z,55.60
2022-09-20T18:18:10.893Z,56.08
2022-09-20T18:20:45.421Z,55.64
2022-09-20T18:23:18.281Z,56.14
2022-09-20T18:26:09.276Z,56.28
2022-09-20T18:28:44.907Z,56.70
2022-09-20T18:31:20.746Z,56.58
2022-09-20T18:33:56.416Z,56.58
2022-09-20T18:36:32.255Z,56.53
2022-09-20T18:39:06.115Z,57.07
2022-09-20T18:41:41.220Z,57.04
2022-09-20T18:44:14.811Z,57.00
2022-09-20T18:46:48.347Z,56.59
2022-09-20T18:49:21.715Z,56.94
2022-09-20T18:51:56.080Z,56.98
2022-09-20T18:54:30.498Z,57.13
2022-09-20T18:57:03.984Z,57.22
2022-09-20T18:59:37.577Z,57.28
2022-09-20T19:02:36.147Z,57.11
2022-09-20T19:05:23.203Z,57.08
2022-09-20T19:08:11.966Z,57.07
2022-09-20T19:10:50.626Z,57.21
2022-09-20T19:13:32.500Z,57.03
2022-09-20T19:16:20.114Z,57.49
2022-09-20T19:19:21.598Z,57.51
2022-09-20T19:22:00.343Z,57.82
2022-09-20T19:24:48.263Z,57.61
2022-09-20T19:27:21.593Z,58.08
2022-09-20T19:29:55.276Z,58.70
2022-09-20T19:32:30.288Z,58.81
2022-09-20T19:35:03.954Z,58.99
2022-09-20T19:37:47.935Z,58.74
2022-09-20T19:40:35.101Z,58.93
2022-09-20T19:43:27.132Z,58.45
2022-09-20T19:46:05.102Z,58.56
2022-09-20T19:48:40.315Z,59.06
2022-09-20T19:51:15.109Z,59.47
2022-09-20T19:53:50.235Z,59.39
2022-09-20T19:56:27.720Z,58.97
2022-09-20T19:59:01.200Z,59.75
2022-09-20T20:01:34.759Z,58.96
2022-09-20T20:04:10.179Z,59.40
2022-09-20T20:06:52.449Z,59.02
2022-09-20T20:09:35.152Z,59.19
2022-09-20T20:12:15.979Z,59.68
2022-09-20T20:14:58.357Z,60.11
2022-09-20T20:17:47.157Z,59.76
2022-09-20T20:20:27.792Z,59.97
2022-09-20T20:23:20.830Z,60.35
2022-09-20T20:26:02.795Z,61.01
2022-09-20T20:28:38.186Z,60.75
2022-09-20T20:31:12.646Z,61.23
2022-09-20T20:33:45.592Z,61.21
2022-09-20T20:36:19.057Z,61.13
2022-09-20T20:38:53.377Z,61.11
2022-09-20T20:41:26.272Z,61.25
2022-09-20T20:44:06.354Z,61.34
2022-09-20T20:46:39.356Z,61.45
2022-09-20T20:49:19.620Z,61.62
2022-09-20T20:51:56.213Z,61.26
2022-09-20T20:54:42.754Z,61.00
2022-09-20T20:57:17.167Z,61.55
2022-09-20T20:59:54.272Z,61.13
2022-09-20T21:02:27.186Z,61.36
2022-09-20T21:05:03.343Z,61.12
2022-09-20T21:07:39.496Z,61.20
2022-09-20T21:10:13.213Z,61.17
2022-09-20T21:12:46.184Z,60.94
2022-09-20T21:15:21.560Z,61.08
2022-09-20T21:17:57.003Z,61.10
2022-09-20T21:20:31.263Z,61.10
2022-09-20T21:23:04.086Z,61.00
2022-09-20T21:25:51.839Z,61.00
2022-09-20T21:28:25.266Z,61.06
2022-09-20T21:31:05.044Z,61.42
2022-09-20T21:33:39.920Z,61.52
2022-09-20T21:36:23.809Z,61.91
2022-09-20T21:38:57.142Z,61.89
2022-09-20T21:41:50.532Z,62.17
2022-09-20T21:44:23.488Z,62.56
2022-09-20T21:47:07.566Z,62.63
2022-09-20T21:49:46.177Z,62.49
2022-09-20T21:52:19.416Z,62.77
2022-09-20T21:55:01.557Z,62.94
2022-09-20T21:57:34.991Z,62.72
2022-09-20T22:00:10.349Z,62.98
2022-09-20T22:02:48.326Z,62.94
2022-09-20T22:05:21.681Z,63.48
2022-09-20T22:08:06.634Z,63.08
2022-09-20T22:10:39.599Z,63.90
2022-09-20T22:13:13.754Z,63.48
2022-09-20T22:15:49.088Z,63.73
2022-09-20T22:18:23.814Z,63.48
2022-09-20T22:21:03.601Z,63.52
2022-09-20T22:23:37.436Z,64.15
2022-09-20T22:26:12.256Z,64.78
2022-09-20T22:28:45.408Z,64.59
2022-09-20T22:31:20.318Z,64.39
2022-09-20T22:33:56.032Z,64.39
2022-09-20T22:36:30.182Z,64.78
2022-09-20T22:39:03.677Z,64.38
2022-09-20T22:41:36.824Z,65.33
2022-09-20T22:44:10.338Z,64.85
2022-09-20T22:46:43.219Z,64.89
2022-09-20T22:49:17.440Z,65.17
2022-09-20T22:51:50.176Z,65.19
2022-09-20T22:54:23.059Z,65.70
2022-09-20T22:56:55.836Z,65.52
2022-09-20T22:59:29.726Z,64.99
2022-09-20T23:02:02.800Z,65.50
2022-09-20T23:04:37.027Z,65.43
2022-09-20T23:07:09.957Z,65.40
2022-09-20T23:09:43.005Z,65.38
2022-09-20T23:12:15.751Z,65.36
2022-09-20T23:14:48.581Z,64.93
2022-09-20T23:17:21.595Z,64.86
2022-09-20T23:19:55.924Z,65.04
2022-09-20T23:22:28.736Z,65.54
2022-09-20T23:25:01.977Z,65.42
2022-09-20T23:27:37.375Z,65.11
2022-09-20T23:30:10.985Z,65.65
2022-09-20T23:32:43.730Z,65.41
2022-09-20T23:35:17.982Z,65.46
2022-09-20T23:37:52.074Z,65.35
2022-09-20T23:40:26.244Z,65.31
2022-09-20T23:42:59.902Z,65.56
2022-09-20T23:45:33.031Z,64.83
2022-09-20T23:48:07.346Z,65.16
2022-09-20T23:50:44.226Z,64.68
2022-09-20T23:53:18.431Z,65.09
2022-09-20T23:55:51.665Z,64.57
2022-09-20T23:58:24.384Z,65.37
